createdAt,value
2023-06-10T00:04:28.832Z,67
2023-06-10T00:09:28.317Z,67
2023-06-10T00:14:27.712Z,68
2023-06-10T00:19:25.444Z,68
2023-06-10T00:24:25.876Z,70
2023-06-10T00:29:25.398Z,70
2023-06-10T00:34:25.093Z,70
2023-06-10T00:39:23.727Z,69
2023-06-10T00:44:23.615Z,70
2023-06-10T00:49:23.069Z,70
2023-06-10T00:54:23.297Z,71
2023-06-10T00:59:09.959Z,72
2023-06-10T01:04:06.966Z,72
2023-06-10T01:09:07.609Z,73
2023-06-10T01:14:07.115Z,74
2023-06-10T01:19:06.406Z,78
2023-06-10T01:24:05.183Z,80
2023-06-10T01:29:04.576Z,79
2023-06-10T01:34:05.216Z,79
2023-06-10T01:39:03.259Z,80
2023-06-10T01:44:02.981Z,76
2023-06-10T01:49:02.483Z,74
2023-06-10T01:54:02.740Z,74
2023-06-10T01:59:03.561Z,72
2023-06-10T02:04:00.470Z,72
2023-06-10T02:09:00.471Z,72
2023-06-10T02:14:00.400Z,74
2023-06-10T02:19:00.149Z,75
2023-06-10T02:23:57.693Z,75
2023-06-10T02:28:57.739Z,75
2023-06-10T02:33:57.486Z,76
2023-06-10T02:38:57.592Z,77
2023-06-10T02:43:56.080Z,77
2023-06-10T02:48:55.921Z,76
2023-06-10T02:53:55.436Z,75
2023-06-10T02:58:55.189Z,74
2023-06-10T03:01:00.876Z,74
2023-06-10T03:59:22.445Z,74
2023-06-10T04:04:23.233Z,74
2023-06-10T04:09:09.184Z,76
2023-06-10T04:14:09.597Z,76
2023-06-10T04:19:09.894Z,75
2023-06-10T04:24:09.175Z,74
2023-06-10T04:29:06.840Z,74
2023-06-10T04:34:06.744Z,73
2023-06-10T04:39:06.988Z,72
2023-06-10T04:44:07.723Z,71
2023-06-10T04:49:04.624Z,71
2023-06-10T04:54:05.243Z,70
2023-06-10T04:59:04.955Z,69
2023-06-10T05:04:04.683Z,69
2023-06-10T05:09:02.656Z,69
2023-06-10T05:14:02.864Z,68
2023-06-10T05:19:04.401Z,68
2023-06-10T05:24:03.115Z,68
2023-06-10T05:29:01.396Z,66
2023-06-10T05:34:01.951Z,66
2023-06-10T05:39:01.621Z,65
2023-06-10T05:44:01.161Z,64
2023-06-10T05:49:01.869Z,63
2023-06-10T05:53:58.848Z,62
2023-06-10T05:58:59.021Z,63
2023-06-10T06:03:59.206Z,61
2023-06-10T06:08:58.608Z,61
2023-06-10T06:13:56.012Z,59
2023-06-10T06:18:55.446Z,58
2023-06-10T06:23:55.781Z,58
2023-06-10T06:28:56.254Z,57
2023-06-10T06:33:53.012Z,57
2023-06-10T06:38:52.512Z,55
2023-06-10T06:43:52.242Z,54
2023-06-10T06:48:51.833Z,55
2023-06-10T06:53:49.312Z,55
2023-06-10T06:58:49.615Z,55
2023-06-10T07:00:55.454Z,55
2023-06-10T07:05:24.227Z,56
2023-06-10T07:10:09.340Z,54
2023-06-10T07:15:09.769Z,54
2023-06-10T07:20:09.319Z,55
2023-06-10T07:25:08.964Z,54
2023-06-10T07:35:06.797Z,54
2023-06-10T07:40:06.563Z,54
2023-06-10T07:45:07.202Z,55
2023-06-10T07:50:05.211Z,53
2023-06-10T07:59:28.746Z,53
2023-06-10T08:04:28.766Z,51
2023-06-10T08:09:28.608Z,52
2023-06-10T08:14:28.607Z,51
2023-06-10T08:19:29.138Z,52
2023-06-10T08:24:26.193Z,50
2023-06-10T08:29:25.381Z,51
2023-06-10T08:34:25.480Z,50
2023-06-10T08:39:24.939Z,49
2023-06-10T08:44:22.832Z,50
2023-06-10T08:49:23.046Z,49
2023-06-10T08:54:22.757Z,49
2023-06-10T08:59:09.088Z,48
2023-06-10T09:04:08.027Z,49
2023-06-10T09:09:08.105Z,48
2023-06-10T09:14:07.572Z,48
2023-06-10T09:19:07.713Z,49
2023-06-10T09:24:08.637Z,48
2023-06-10T09:29:05.431Z,48
2023-06-10T09:34:05.056Z,47
2023-06-10T09:39:05.633Z,48
2023-06-10T09:44:04.304Z,49
2023-06-10T09:49:04.621Z,47
2023-06-10T09:54:03.734Z,47
2023-06-10T09:59:03.962Z,47
2023-06-10T10:04:04.770Z,47
2023-06-10T10:09:01.331Z,46
2023-06-10T10:14:00.824Z,45
2023-06-10T10:19:00.846Z,45
2023-06-10T10:24:00.561Z,43
2023-06-10T10:28:58.234Z,43
2023-06-10T10:33:58.451Z,43
2023-06-10T10:38:58.065Z,43
2023-06-10T10:43:57.387Z,43
2023-06-10T10:48:55.911Z,43
2023-06-10T10:53:56.120Z,42
2023-06-10T10:58:55.533Z,42
2023-06-10T11:03:55.808Z,42
2023-06-10T11:08:53.488Z,41
2023-06-10T11:13:53.633Z,42
2023-06-10T11:18:53.459Z,42
2023-06-10T11:23:53.864Z,41
2023-06-10T11:28:53.318Z,40
2023-06-10T11:33:53.572Z,40
2023-06-10T11:38:53.095Z,42
2023-06-10T11:43:53.442Z,41
2023-06-10T11:48:54.175Z,40
2023-06-10T11:53:49.855Z,40
2023-06-10T11:58:50.075Z,39
2023-06-10T12:05:24.365Z,39
2023-06-10T12:10:26.171Z,38
2023-06-10T12:15:10.537Z,38
2023-06-10T12:20:10.383Z,38
2023-06-10T12:25:12.164Z,37
2023-06-10T12:30:07.527Z,38
2023-06-10T12:35:07.378Z,37
2023-06-10T12:40:07.709Z,36
2023-06-10T12:45:06.300Z,36
2023-06-10T12:50:06.735Z,35
2023-06-10T12:55:06.241Z,36
2023-06-10T12:59:28.175Z,35
2023-06-10T13:04:29.413Z,34
2023-06-10T13:09:25.328Z,35
2023-06-10T13:14:25.043Z,35
2023-06-10T13:19:25.281Z,34
2023-06-10T13:24:25.394Z,36
2023-06-10T13:29:22.512Z,34
2023-06-10T13:34:21.778Z,34
2023-06-10T13:39:22.035Z,35
2023-06-10T13:44:21.368Z,34
2023-06-10T13:49:20.491Z,35
2023-06-10T13:54:20.816Z,36
2023-06-10T13:59:06.831Z,35
2023-06-10T14:04:07.448Z,34
2023-06-10T14:09:07.695Z,35
2023-06-10T14:14:05.022Z,35
2023-06-10T14:19:04.521Z,35
2023-06-10T14:24:04.630Z,35
2023-06-10T14:29:03.913Z,35
2023-06-10T14:34:03.539Z,35
2023-06-10T14:39:04.199Z,35
2023-06-10T14:44:03.738Z,35
2023-06-10T14:49:03.884Z,35
2023-06-10T14:54:00.766Z,35
2023-06-10T14:59:05.328Z,34
2023-06-10T15:03:59.994Z,35
2023-06-10T15:09:00.071Z,34
2023-06-10T15:13:59.625Z,34
2023-06-10T15:18:59.584Z,34
2023-06-10T15:23:59.955Z,34
2023-06-10T15:28:59.539Z,33
2023-06-10T15:34:03.319Z,34
2023-06-10T15:38:57.121Z,34
2023-06-10T15:43:56.134Z,34
2023-06-10T15:48:56.010Z,34
2023-06-10T15:53:56.153Z,35
2023-06-10T15:58:55.878Z,36
2023-06-10T16:01:02.147Z,35
2023-06-10T16:05:19.383Z,34
2023-06-10T16:10:20.324Z,33
2023-06-10T16:15:27.471Z,34
2023-06-10T16:20:27.505Z,34
2023-06-10T16:25:28.077Z,33
2023-06-10T16:30:27.930Z,33
2023-06-10T16:35:28.475Z,34
2023-06-10T16:40:28.645Z,34
2023-06-10T16:45:27.664Z,35
2023-06-10T16:50:27.128Z,34
2023-06-10T16:55:27.295Z,33
2023-06-10T16:59:48.326Z,33
2023-06-10T17:04:47.985Z,34
2023-06-10T17:09:48.246Z,35
2023-06-10T17:14:48.092Z,35
2023-06-10T17:19:51.070Z,35
2023-06-10T17:24:45.214Z,35
2023-06-10T17:29:44.486Z,35
2023-06-10T17:34:44.195Z,36
2023-06-10T17:39:45.333Z,36
2023-06-10T17:44:46.018Z,36
2023-06-10T17:49:48.878Z,37
2023-06-10T17:54:45.209Z,37
2023-06-10T17:59:25.994Z,37
2023-06-10T18:04:26.186Z,37
2023-06-10T18:09:28.623Z,38
2023-06-10T18:14:25.214Z,38
2023-06-10T18:19:24.726Z,38
2023-06-10T18:24:24.500Z,38
2023-06-10T18:29:24.782Z,39
2023-06-10T18:34:26.615Z,40
2023-06-10T18:39:24.523Z,41
2023-06-10T18:44:21.958Z,41
2023-06-10T18:49:20.949Z,42
2023-06-10T18:54:20.938Z,43
2023-06-10T18:59:04.795Z,43
2023-06-10T19:04:04.397Z,44
2023-06-10T19:09:04.182Z,44
2023-06-10T19:14:04.046Z,45
2023-06-10T19:19:04.076Z,45
2023-06-10T19:24:01.318Z,46
2023-06-10T19:29:00.825Z,47
2023-06-10T19:34:00.252Z,48
2023-06-10T19:39:00.175Z,48
2023-06-10T19:43:59.581Z,49
2023-06-10T19:48:59.507Z,50
2023-06-10T19:53:59.682Z,51
2023-06-10T19:58:59.326Z,51
2023-06-10T20:04:02.259Z,52
2023-06-10T20:08:56.590Z,52
2023-06-10T20:13:56.067Z,53
2023-06-10T20:18:55.793Z,54
2023-06-10T20:23:56.164Z,54
2023-06-10T20:28:55.970Z,55
2023-06-10T20:33:55.872Z,55
2023-06-10T20:38:55.490Z,56
2023-06-10T20:43:54.982Z,56
2023-06-10T20:48:53.445Z,56
2023-06-10T20:53:53.816Z,56
2023-06-10T20:58:53.535Z,56
2023-06-10T21:00:59.694Z,57
2023-06-10T21:05:27.342Z,56
2023-06-10T21:10:27.071Z,56
2023-06-10T21:15:27.327Z,56
2023-06-10T21:20:24.345Z,56
2023-06-10T21:25:24.819Z,56
2023-06-10T21:30:24.009Z,56
2023-06-10T21:35:25.344Z,56
2023-06-10T21:40:24.523Z,56
2023-06-10T21:45:26.080Z,56
2023-06-10T21:50:25.746Z,56
2023-06-10T21:55:23.117Z,56
2023-06-10T21:59:44.101Z,55
2023-06-10T22:04:44.262Z,56
2023-06-10T22:09:44.030Z,55
2023-06-10T22:14:43.558Z,56
2023-06-10T22:19:44.076Z,56
2023-06-10T22:24:52.853Z,56
2023-06-10T22:29:41.673Z,56
2023-06-10T22:34:41.019Z,56
2023-06-10T22:39:40.906Z,57
2023-06-10T22:44:40.995Z,57
2023-06-10T22:49:40.785Z,57
2023-06-10T22:54:40.601Z,58
2023-06-10T22:59:22.993Z,58
2023-06-10T23:04:22.659Z,58
2023-06-10T23:09:23.639Z,59
2023-06-10T23:14:19.691Z,59
2023-06-10T23:19:19.796Z,59
2023-06-10T23:29:19.635Z,60
2023-06-10T23:34:19.239Z,60
2023-06-10T23:39:19.351Z,60
2023-06-10T23:44:18.607Z,61
2023-06-10T23:49:18.711Z,61
2023-06-10T23:54:27.747Z,62
2023-06-10T23:59:00.187Z,62
